Latest Coastal Weather Observations for Groote Eylandt Airport

IDD60701

Issued at 4:51 am CST Friday 27 March 2015 (issued every 10 minutes, with the page automatically refreshed every 10 minutes)

About coastal observations | Map of coastal stations | Coastal observations for NT | Marine services | Other Formats
Station Details ID: 014518 Name: GROOTE EYLANDT AIRPORT Lat: -13.97 Lon: 136.46 Height: 13.7 m
Data from the previous 72 hours. | See also: Recent months at Groote Eylandt Airport
Date/Time
CST
Temp

°C
Wind Pressure Rain
since 9am
mm
Weather Cloud Vis
km
Sea
Height
m
Swell
Dir
 
Speed
knots
Gust
knots
hPa Trend Height
m
Period
s
Dir
27/04:30am 23.2 ESE 1 3 1013.0 - 1.8 - - 10 - - - -
27/04:00am 23.4 E 3 4 1012.9 - 1.8 - - 10 - - - -
27/03:30am 23.5 CALM 0 0 1013.0 - 1.8 - - 10 - - - -
27/03:00am 23.8 ESE 2 4 1013.2 - 1.8 - - 10 - - - -
27/02:30am 23.9 CALM 0 0 1013.7 - 1.8 - - 10 - - - -
27/02:00am 24.2 CALM 0 0 1014.0 - 1.8 - - 10 - - - -
27/01:30am 24.4 E 3 4 1014.3 - 1.8 - - 10 - - - -
27/01:00am 24.4 CALM 0 0 1014.8 - 1.8 - Partly cloudy 10 - - - -
27/12:30am 24.9 CALM 0 0 1014.9 - 1.8 - Partly cloudy 10 - - - -
27/12:00am 24.9 CALM 0 0 1015.1 - 1.8 - Mostly clear 10 - - - -
 
Date/Time
CST
Temp

°C
Wind Pressure Rain
since 9am
mm
Weather Cloud Vis
km
Sea
Height
m
Swell
Dir
 
Speed
knots
Gust
knots
hPa Trend Height
m
Period
s
Dir
26/11:30pm 25.6 NNW 3 4 1015.3 - 1.8 - Partly cloudy 10 - - - -
26/11:00pm 25.3 CALM 0 0 1015.4 - 1.8 - Partly cloudy 10 - - - -
26/10:30pm 25.7 CALM 0 0 1015.5 - 1.8 - - 10 - - - -
26/10:00pm 26.0 CALM 0 0 1015.3 - 1.8 - Partly cloudy 10 - - - -
26/09:30pm 26.5 CALM 0 0 1015.3 - 1.8 - - 10 - - - -
26/09:00pm 26.4 CALM 0 0 1015.1 - 1.8 - Cloudy 10 - - - -
26/08:30pm 26.9 E 4 5 1014.8 - 1.8 - - 10 - - - -
26/08:00pm 27.0 E 3 4 1014.3 - 1.8 - Partly cloudy 10 - - - -
26/07:30pm 27.6 ENE 3 5 1014.0 - 1.8 - - 10 - - - -
26/07:00pm 27.9 ESE 3 5 1014.0 - 1.8 - - 10 - - - -
26/06:30pm 28.8 E 5 6 1013.5 - 1.8 - - 10 - - - -
26/06:00pm 29.3 ENE 6 7 1013.3 - 1.8 - Mostly cloudy 10 - - - -
26/05:30pm 29.9 E 4 6 1013.0 - 1.8 - - 10 - - - -
26/05:00pm 30.4 E 7 10 1012.6 - 1.8 - Partly cloudy 10 - - - -
26/04:30pm 30.8 E 8 11 1012.4 - 1.8 - Partly cloudy 10 - - - -
26/04:00pm 31.8 E 9 12 1012.1 - 1.8 - Partly cloudy 10 - - - -
26/03:30pm 31.0 E 6 9 1011.9 - 1.8 - Partly cloudy 10 - - - -
26/03:00pm 30.5 ESE 4 7 1011.8 - 1.8 - - 10 - - - -
26/02:30pm 29.9 SSE 3 5 1012.3 - 1.8 - - 10 - - - -
26/02:00pm 29.0 SE 3 5 1012.6 - 1.8 - Partly cloudy 10 - - - -
26/01:30pm 28.1 SE 3 6 1012.9 - 1.8 - Partly cloudy 10 - - - -
26/01:00pm 27.0 S 6 8 1013.9 - 1.8 - Partly cloudy 10 - - - -
26/12:30pm 25.6 SSW 5 7 1014.6 - 1.8 - Partly cloudy 10 - - - -
26/12:16pm 25.8 W 3 7 1014.6 - 1.4 - Partly cloudy 8 - - - -
26/12:04pm 25.7 NNW 7 11 1014.9 - 1.0 - Partly cloudy 5 - - - -
26/12:00pm 25.8 NW 8 11 1014.9 - 0.6 Showers Cloudy 8 - - - -
26/11:30am 28.1 SW 8 13 1014.7 - 0.0 - Partly cloudy 10 - - - -
26/11:00am 32.6 ENE 5 10 1014.6 - 0.0 - Partly cloudy 10 - - - -
26/10:30am 31.8 E 5 7 1015.0 - 0.0 - Partly cloudy 10 - - - -
26/10:00am 31.0 NNE 5 6 1015.1 - 0.0 - Partly cloudy 10 - - - -
26/09:30am 30.2 N 3 5 1015.1 - 0.0 - Partly cloudy 10 - - - -
26/09:00am 29.8 N 1 6 1015.1 - 7.0 - Mostly clear 10 - - - -
26/08:30am 28.6 NNE 2 5 1014.9 - 7.0 - Partly cloudy 10 - - - -
26/08:00am 26.6 CALM 0 0 1014.7 - 7.0 - Cloudy 10 - - - -
26/07:30am 25.6 ESE 2 4 1014.3 - 7.0 - Cloudy - - - - -
26/07:00am 25.0 ESE 3 4 1014.0 - 7.0 - Partly cloudy - - - - -
26/06:30am 24.9 CALM 0 0 1013.7 - 7.0 - Cloudy 10 - - - -
26/06:00am 24.6 ESE 2 3 1013.4 - 7.0 - - 10 - - - -
26/05:30am 24.9 CALM 0 0 1013.1 - 7.0 - - 10 - - - -
26/05:00am 25.0 ESE 3 4 1012.9 - 7.0 - - 10 - - - -
26/04:30am 24.9 CALM 0 0 1012.7 - 7.0 - - 10 - - - -
26/04:00am 24.8 CALM 0 0 1012.5 - 7.0 - - 10 - - - -
26/03:30am 25.2 E 3 4 1012.4 - 7.0 - - 10 - - - -
26/03:00am 25.1 ESE 4 6 1012.7 - 6.8 - - 10 - - - -
26/02:30am 25.2 CALM 0 0 1012.8 - 6.8 - - 10 - - - -
26/02:00am 25.4 E 4 4 1013.0 - 6.8 - Partly cloudy 10 - - - -
26/01:30am 25.6 ENE 4 4 1013.2 - 6.8 - Partly cloudy 10 - - - -
26/01:00am 25.7 E 3 5 1013.2 - 6.8 - - 10 - - - -
26/12:30am 26.0 ENE 5 6 1013.4 - 6.8 - Partly cloudy 10 - - - -
26/12:00am 26.0 ENE 5 6 1013.5 - 6.8 - Cloudy 10 - - - -
 
Date/Time
CST
Temp

°C
Wind Pressure Rain
since 9am
mm
Weather Cloud Vis
km
Sea
Height
m
Swell
Dir
 
Speed
knots
Gust
knots
hPa Trend Height
m
Period
s
Dir
25/11:30pm 26.0 ENE 5 6 1013.7 - 6.8 - Partly cloudy 10 - - - -
25/11:00pm 26.0 E 6 7 1013.9 - 6.8 - Partly cloudy 10 - - - -
25/10:30pm 26.4 E 6 8 1013.8 - 6.8 - Partly cloudy 10 - - - -
25/10:00pm 25.8 CALM 0 4 1013.8 - 6.8 - Partly cloudy 10 - - - -
25/09:30pm 25.9 ESE 4 5 1013.7 - 6.8 - Partly cloudy 10 - - - -
25/09:00pm 26.0 E 2 4 1013.4 - 6.8 - Mostly cloudy 10 - - - -
25/08:30pm 26.0 ESE 1 4 1013.1 - 6.8 - - 10 - - - -
25/08:00pm 26.6 ENE 4 5 1012.7 - 6.8 - Partly cloudy 10 - - - -
25/07:30pm 26.9 ENE 5 6 1012.3 - 6.8 - - 10 - - - -
25/07:00pm 27.2 ENE 5 8 1012.1 - 6.8 - Partly cloudy 10 - - - -
25/06:30pm 27.1 ENE 5 6 1011.9 - 6.8 - Partly cloudy 10 - - - -
25/06:00pm 27.2 E 6 8 1011.5 - 6.8 Rain Partly cloudy 10 - - - -
25/05:30pm 27.9 ENE 11 17 1011.0 - 6.8 - Partly cloudy 10 - - - -
25/05:00pm 28.8 ENE 8 10 1010.7 - 6.8 - Partly cloudy 10 - - - -
25/04:30pm 27.8 ENE 5 7 1010.4 - 6.8 - Partly cloudy 10 - - - -
25/04:01pm 26.4 ENE 12 17 1010.4 - 6.8 - Partly cloudy 10 - - - -
25/04:00pm 26.2 ENE 12 17 1010.4 - 6.8 - Partly cloudy 10 - - - -
25/03:38pm 26.8 NE 13 25 1010.3 - 2.8 - Partly cloudy 5 - - - -
25/03:37pm 27.4 NE 12 25 1010.2 - 1.8 - Partly cloudy 10 - - - -
25/03:30pm 30.1 ENE 9 13 1010.0 - 1.2 - Partly cloudy 10 - - - -
25/03:00pm 29.2 ENE 11 16 1010.1 - 1.2 - Cloudy 10 - - - -
25/02:30pm 30.7 ENE 10 16 1010.2 - 1.2 - Partly cloudy 10 - - - -
25/02:00pm 30.0 ENE 7 9 1010.4 - 1.2 - Partly cloudy 10 - - - -
25/01:36pm 27.6 E 7 10 1010.8 - 1.2 - Partly cloudy 10 - - - -
25/01:30pm 27.1 E 9 15 1010.9 - 1.2 - Partly cloudy 10 - - - -
25/01:24pm 26.1 ENE 13 21 1011.0 - 1.2 - Partly cloudy 5 - - - -
25/01:18pm 26.2 NE 15 22 1011.3 - 0.8 - Partly cloudy 10 - - - -
25/01:00pm 31.2 NE 11 17 1011.1 - 0.2 - Partly cloudy 10 - - - -
25/12:30pm 30.8 NE 11 16 1011.6 - 0.2 - Partly cloudy 10 - - - -
25/12:00pm 31.8 ENE 11 18 1012.0 - 0.2 - Mostly clear 10 - - - -
25/11:30am 30.8 ENE 11 17 1012.3 - 0.2 - Partly cloudy 10 - - - -
25/11:00am 31.2 ENE 12 17 1012.5 - 0.2 - Partly cloudy 10 - - - -
25/10:30am 30.5 ENE 11 16 1012.7 - 0.2 - Partly cloudy 10 - - - -
25/10:00am 30.1 ENE 12 17 1012.8 - 0.0 - Partly cloudy 10 - - - -
25/09:30am 29.2 ENE 11 16 1013.2 - 0.0 - Partly cloudy 10 - - - -
25/09:00am 28.1 ENE 9 14 1013.0 - - - Mostly cloudy 10 - - - -
25/08:30am 27.7 ENE 10 14 1012.7 - - - Cloudy 10 - - - -
25/08:00am 26.8 - - - - - - - - - - - - -
25/06:00am 24.7 E 6 7 1011.5 - 11.0 - Cloudy 10 - - - -
25/05:30am 24.8 E 7 9 1011.4 - 11.0 - Partly cloudy 10 - - - -
25/05:00am 24.7 E 9 12 1010.9 - 11.0 - Partly cloudy 10 - - - -
25/04:30am 24.9 ENE 10 13 1010.5 - 11.0 - Partly cloudy 10 - - - -
25/04:00am 25.1 ENE 7 10 1010.8 - 11.0 - Cloudy 10 - - - -
25/03:30am 25.1 E 7 8 1010.7 - 11.0 - Partly cloudy 10 - - - -
25/03:00am 25.2 ENE 8 11 1010.7 - 11.0 - Mostly cloudy 10 - - - -
25/02:30am 25.3 ENE 9 11 1010.7 - 11.0 - - 10 - - - -
25/02:00am 25.2 ENE 9 11 1011.0 - 11.0 - Partly cloudy 10 - - - -
25/01:30am 25.0 E 5 7 1011.4 - 11.0 - Partly cloudy 10 - - - -
25/01:00am 25.0 E 5 6 1011.5 - 11.0 - Partly cloudy 10 - - - -
25/12:30am 24.9 E 5 6 1012.2 - 10.6 - Partly cloudy 10 - - - -
25/12:00am 24.9 E 6 8 1012.4 - 8.8 Rain Cloudy 10 - - - -
 
Date/Time
CST
Temp

°C
Wind Pressure Rain
since 9am
mm
Weather Cloud Vis
km
Sea
Height
m
Swell
Dir
 
Speed
knots
Gust
knots
hPa Trend Height
m
Period
s
Dir
24/11:30pm 24.8 E 7 11 1012.6 - 7.8 - Cloudy 10 - - - -
24/11:00pm 24.4 E 7 9 1012.3 - 6.6 - Partly cloudy 10 - - - -
24/10:30pm 24.5 ENE 6 8 1013.0 - 5.4 - Partly cloudy 10 - - - -
24/10:00pm 24.5 ENE 6 7 1012.8 - 4.6 - - 10 - - - -
24/09:30pm 24.6 E 6 7 1012.6 - 3.8 - - 10 - - - -
24/09:00pm 24.6 E 8 11 1012.1 - 3.4 Rain Cloudy 10 - - - -
24/08:30pm 24.9 NE 7 9 1011.9 - 3.0 - Partly cloudy 10 - - - -
24/08:00pm 24.8 ENE 9 12 1011.3 - 3.0 - Partly cloudy 10 - - - -
24/07:30pm 24.7 ENE 10 14 1011.1 - 3.0 - Partly cloudy 10 - - - -
24/07:00pm 24.6 NE 10 14 1010.9 - 3.0 - Partly cloudy 10 - - - -
24/06:30pm 24.7 ENE 10 14 1010.7 - 3.0 - Partly cloudy 10 - - - -
24/06:00pm 24.7 NE 9 13 1010.5 - 2.8 Rain Cloudy 10 - - - -
24/05:30pm 24.8 ENE 9 14 1010.0 - 2.6 - Partly cloudy 10 - - - -
24/05:00pm 25.0 ENE 9 12 1009.9 - 2.4 - Partly cloudy 10 - - - -
24/04:30pm 25.2 ENE 12 17 1009.7 - 2.4 - Partly cloudy 10 - - - -
24/04:00pm 25.3 ENE 14 20 1009.8 - 2.2 - Partly cloudy 10 - - - -
24/03:30pm 25.3 ENE 14 22 1009.4 - 2.2 - Partly cloudy 10 - - - -
24/03:00pm 25.1 ENE 13 18 1009.2 - 2.2 Showers Mostly cloudy 10 - - - -
24/02:30pm 25.1 ENE 10 14 1009.7 - 2.2 - Partly cloudy 10 - - - -
24/02:00pm 25.0 ENE 11 16 1010.3 - 2.2 - Partly cloudy 10 - - - -
24/01:30pm 25.0 ENE 13 19 1010.2 - 2.0 - Partly cloudy 10 - - - -
24/01:00pm 26.2 ENE 12 17 1011.0 - 1.6 - Partly cloudy 10 - - - -
24/12:30pm 26.7 ENE 14 22 1011.1 - 1.6 - Partly cloudy 10 - - - -
24/12:00pm 25.6 E 11 15 1011.6 - 1.6 Showers Mostly cloudy 10 - - - -
24/11:30am 24.7 ENE 14 17 1012.0 - 1.6 - Partly cloudy 10 - - - -
24/11:00am 25.2 ENE 14 19 1012.5 - 0.8 - Cloudy 10 - - - -
24/10:30am 25.0 ENE 15 23 1012.4 - 0.8 - Partly cloudy 10 - - - -
24/10:03am 25.3 ENE 16 26 1012.2 - 0.8 - Partly cloudy 10 - - - -
24/10:00am 25.3 ENE 17 26 1012.2 - 0.8 - Partly cloudy 10 - - - -
24/09:52am 25.5 ENE 15 22 1012.2 - 0.6 - Partly cloudy 10 - - - -
24/09:30am 25.3 ENE 9 11 1012.1 - 0.4 - Partly cloudy 10 - - - -
24/09:00am 25.1 ENE 5 7 1011.9 - 6.6 Rain Cloudy 10 - - - -
24/08:30am 25.5 ENE 7 11 1011.7 - 6.4 - - 10 - - - -
24/08:00am 25.5 ENE 7 9 1011.2 - 6.0 - Cloudy 10 - - - -
24/07:30am 25.5 ENE 8 11 1010.6 - 5.8 - Partly cloudy 10 - - - -
24/07:00am 25.3 ENE 9 12 1010.0 - 5.8 - Partly cloudy 10 - - - -
24/06:30am 24.9 E 6 8 1009.6 - 5.8 - Partly cloudy 10 - - - -
24/06:00am 25.4 ENE 9 11 1009.4 - 5.6 Showers Cloudy 9 - - - -
24/05:30am 25.9 NE 6 9 1009.0 - 5.4 - Partly cloudy 10 - - - -
24/05:00am 26.1 ENE 8 10 1008.7 - 5.2 - - 10 - - - -

Other Formats:

Comma delimited format used in spreadsheet applications
http://www.bom.gov.au/fwo/IDD60701/IDD60701.94153.axf

JavaScript Object Notation format (JSON) in row-major order
http://www.bom.gov.au/fwo/IDD60701/IDD60701.94153.json